createdAt,value
2016-09-06T00:00:28.099Z,0
2016-09-06T00:01:28.055Z,0
2016-09-06T00:02:28.099Z,0
2016-09-06T00:03:28.059Z,0
2016-09-06T00:04:28.055Z,0
2016-09-06T00:05:28.045Z,0
2016-09-06T00:06:28.051Z,0
2016-09-06T00:07:28.042Z,0
2016-09-06T00:08:28.094Z,0
2016-09-06T00:09:28.069Z,0
2016-09-06T00:10:28.071Z,0
2016-09-06T00:11:28.039Z,0
2016-09-06T00:12:28.062Z,0
2016-09-06T00:13:28.030Z,0
2016-09-06T00:14:28.081Z,0
2016-09-06T00:15:28.066Z,0
2016-09-06T00:16:28.039Z,0
2016-09-06T00:17:28.022Z,0
2016-09-06T00:18:28.076Z,0
2016-09-06T00:19:28.081Z,0
2016-09-06T00:20:28.062Z,0
2016-09-06T00:21:28.070Z,0
2016-09-06T00:22:28.049Z,0
2016-09-06T00:23:28.098Z,0
2016-09-06T00:24:28.040Z,0
2016-09-06T00:25:28.106Z,0
2016-09-06T00:26:28.073Z,0
2016-09-06T00:27:28.038Z,0
2016-09-06T00:28:28.055Z,0
2016-09-06T00:29:28.078Z,0
2016-09-06T00:30:28.058Z,0
2016-09-06T00:31:28.051Z,0
2016-09-06T00:32:28.084Z,0
2016-09-06T00:33:28.103Z,0
2016-09-06T00:34:28.077Z,0
2016-09-06T00:35:28.054Z,0
2016-09-06T00:36:28.077Z,0
2016-09-06T00:37:28.079Z,0
2016-09-06T00:38:28.081Z,0
2016-09-06T00:39:28.071Z,0
2016-09-06T00:40:28.084Z,0
2016-09-06T00:41:28.061Z,0
2016-09-06T00:42:28.056Z,0
2016-09-06T00:43:28.063Z,0
2016-09-06T00:44:28.116Z,0
2016-09-06T00:45:28.070Z,0
2016-09-06T00:46:28.062Z,0
2016-09-06T00:47:28.082Z,0
2016-09-06T00:48:28.060Z,0
2016-09-06T00:49:28.090Z,0
2016-09-06T00:50:28.072Z,0
2016-09-06T00:51:28.104Z,0
2016-09-06T00:52:29.124Z,0
2016-09-06T00:53:28.094Z,0
2016-09-06T00:54:28.137Z,0
2016-09-06T00:55:28.114Z,0
2016-09-06T00:56:28.119Z,0
2016-09-06T00:57:28.102Z,0
2016-09-06T00:58:28.085Z,0
2016-09-06T00:59:28.113Z,0
2016-09-06T01:00:28.130Z,0
2016-09-06T01:01:28.163Z,0
2016-09-06T01:02:28.383Z,0
2016-09-06T01:03:28.176Z,0
2016-09-06T01:04:28.151Z,0
2016-09-06T01:05:28.146Z,0
2016-09-06T01:06:28.176Z,0
2016-09-06T01:07:28.100Z,0
2016-09-06T01:08:28.190Z,0
2016-09-06T01:09:28.232Z,0
2016-09-06T01:10:28.144Z,0
2016-09-06T01:11:28.135Z,0
2016-09-06T01:12:28.155Z,0
2016-09-06T01:13:28.135Z,0
2016-09-06T01:14:28.129Z,0
2016-09-06T01:15:28.152Z,0
2016-09-06T01:16:28.116Z,0
2016-09-06T01:17:28.116Z,0
2016-09-06T01:18:28.114Z,0
2016-09-06T01:19:28.133Z,0
2016-09-06T01:20:28.093Z,0
2016-09-06T01:21:28.101Z,0
2016-09-06T01:22:28.123Z,0
2016-09-06T01:23:28.133Z,0
2016-09-06T01:24:28.103Z,0
2016-09-06T01:25:28.126Z,0
2016-09-06T01:26:28.239Z,0
2016-09-06T01:27:28.145Z,0
2016-09-06T01:28:28.124Z,0
2016-09-06T01:29:28.134Z,0
2016-09-06T01:30:28.137Z,0
2016-09-06T01:31:28.142Z,0
2016-09-06T01:32:28.134Z,0
2016-09-06T01:33:28.133Z,0
2016-09-06T01:34:28.162Z,0
2016-09-06T01:35:28.162Z,0
2016-09-06T01:36:28.134Z,0
2016-09-06T01:37:28.133Z,0
2016-09-06T01:38:28.138Z,0
2016-09-06T01:39:28.152Z,0
2016-09-06T01:40:28.133Z,0
2016-09-06T01:41:28.100Z,0
2016-09-06T01:42:28.190Z,0
2016-09-06T01:43:28.117Z,0
2016-09-06T01:44:28.134Z,0
2016-09-06T01:45:28.141Z,0
2016-09-06T01:46:28.146Z,0
2016-09-06T01:47:28.246Z,0
2016-09-06T01:48:28.176Z,0
2016-09-06T01:49:28.187Z,0
2016-09-06T01:50:28.134Z,0
2016-09-06T01:51:28.124Z,0
2016-09-06T01:52:28.239Z,0
2016-09-06T01:53:28.179Z,0
2016-09-06T01:54:28.140Z,0
2016-09-06T01:55:28.165Z,0
2016-09-06T01:56:28.165Z,0
2016-09-06T01:57:28.160Z,0
2016-09-06T01:58:28.165Z,0
2016-09-06T01:59:28.132Z,0
2016-09-06T02:00:28.117Z,0
2016-09-06T02:01:28.154Z,0
2016-09-06T02:02:28.132Z,0
2016-09-06T02:03:28.196Z,0
2016-09-06T02:04:28.140Z,0
2016-09-06T02:05:28.149Z,0
2016-09-06T02:06:28.147Z,0
2016-09-06T02:07:28.135Z,0
2016-09-06T02:08:28.166Z,0
2016-09-06T02:09:28.141Z,0
2016-09-06T02:10:28.133Z,0
2016-09-06T02:11:28.148Z,0
2016-09-06T02:12:28.176Z,0
2016-09-06T02:13:28.158Z,0
2016-09-06T02:14:28.174Z,0
2016-09-06T02:15:28.155Z,0
2016-09-06T02:16:28.226Z,0
2016-09-06T02:17:28.213Z,0
2016-09-06T02:18:28.196Z,0
2016-09-06T02:19:28.179Z,0
2016-09-06T02:20:28.159Z,0
2016-09-06T02:21:28.166Z,0
2016-09-06T02:22:28.270Z,0
2016-09-06T02:23:28.189Z,0
2016-09-06T02:24:28.182Z,0
2016-09-06T02:25:28.162Z,0
2016-09-06T02:26:28.206Z,0
2016-09-06T02:27:28.197Z,0
2016-09-06T02:28:28.181Z,0
2016-09-06T02:29:28.184Z,0
2016-09-06T02:30:28.198Z,0
2016-09-06T02:31:28.205Z,0
2016-09-06T02:32:28.182Z,0
2016-09-06T02:33:28.204Z,0
2016-09-06T02:34:28.202Z,0
2016-09-06T02:35:28.187Z,0
2016-09-06T02:36:28.219Z,0
2016-09-06T02:37:28.245Z,0
2016-09-06T02:38:28.227Z,0
2016-09-06T02:39:28.211Z,0
2016-09-06T02:40:28.195Z,0
2016-09-06T02:41:28.232Z,0
2016-09-06T02:42:28.222Z,0
2016-09-06T02:43:28.198Z,0
2016-09-06T02:44:28.216Z,0
2016-09-06T02:45:28.182Z,0
2016-09-06T02:46:28.215Z,0
2016-09-06T02:47:28.213Z,0
2016-09-06T02:48:28.189Z,0
2016-09-06T02:49:28.229Z,0
2016-09-06T02:50:28.217Z,0
2016-09-06T02:51:28.206Z,0
2016-09-06T02:52:28.270Z,0
2016-09-06T02:53:28.207Z,0
2016-09-06T02:54:28.214Z,0
2016-09-06T02:55:28.200Z,0
2016-09-06T02:56:28.214Z,0
2016-09-06T02:57:28.215Z,0
2016-09-06T02:58:28.211Z,0
2016-09-06T02:59:28.212Z,0
2016-09-06T03:00:28.212Z,0
2016-09-06T03:01:28.226Z,0
2016-09-06T03:02:28.264Z,0
2016-09-06T03:03:28.199Z,0
2016-09-06T03:04:28.229Z,0
2016-09-06T03:05:28.182Z,0
2016-09-06T03:06:28.258Z,0
2016-09-06T03:07:28.243Z,0
2016-09-06T03:08:28.203Z,0
2016-09-06T03:09:28.234Z,0
2016-09-06T03:10:28.216Z,0
2016-09-06T03:11:28.234Z,0
2016-09-06T03:12:28.199Z,0
2016-09-06T03:13:28.275Z,0
2016-09-06T03:14:28.209Z,0
2016-09-06T03:15:28.219Z,0
2016-09-06T03:16:28.244Z,0
2016-09-06T03:17:28.214Z,0
2016-09-06T03:18:28.249Z,0
2016-09-06T03:19:28.200Z,0
2016-09-06T03:20:28.234Z,0
2016-09-06T03:21:28.231Z,0
2016-09-06T03:22:28.250Z,0
2016-09-06T03:23:28.219Z,0
2016-09-06T03:24:28.214Z,0
2016-09-06T03:25:28.243Z,0
2016-09-06T03:26:28.283Z,0
2016-09-06T03:27:28.194Z,0
2016-09-06T03:28:28.218Z,0
2016-09-06T03:29:28.228Z,0
2016-09-06T03:30:28.233Z,0
2016-09-06T03:31:28.231Z,0
2016-09-06T03:32:28.231Z,0
2016-09-06T03:33:28.233Z,0
2016-09-06T03:34:28.206Z,0
2016-09-06T03:35:28.236Z,0
2016-09-06T03:36:28.218Z,0
2016-09-06T03:37:28.206Z,0
2016-09-06T03:38:28.277Z,0
2016-09-06T03:39:28.245Z,0
2016-09-06T03:40:28.276Z,0
2016-09-06T03:41:28.263Z,0
2016-09-06T03:42:28.248Z,0
2016-09-06T03:43:28.242Z,0
2016-09-06T03:44:28.266Z,0
2016-09-06T03:45:28.254Z,0
2016-09-06T03:46:28.245Z,0
2016-09-06T03:47:28.280Z,0
2016-09-06T03:48:28.893Z,0
2016-09-06T03:49:28.233Z,0
2016-09-06T03:50:28.265Z,0
2016-09-06T03:51:28.267Z,0
2016-09-06T03:52:28.293Z,0
2016-09-06T03:53:28.231Z,0
2016-09-06T03:54:28.269Z,0
2016-09-06T03:55:28.230Z,0
2016-09-06T03:56:28.251Z,0
2016-09-06T03:57:28.243Z,0
2016-09-06T03:58:28.286Z,0
2016-09-06T03:59:28.246Z,0
2016-09-06T04:00:28.246Z,0
2016-09-06T04:01:28.296Z,0
2016-09-06T04:02:28.254Z,0
2016-09-06T04:03:28.251Z,0
2016-09-06T04:04:28.256Z,0
2016-09-06T04:05:28.233Z,0
2016-09-06T04:06:28.291Z,0
2016-09-06T04:07:28.252Z,0
2016-09-06T04:08:28.277Z,0
2016-09-06T04:09:28.252Z,0
2016-09-06T04:10:28.283Z,0
2016-09-06T04:11:28.273Z,0
2016-09-06T04:12:28.297Z,0
2016-09-06T04:13:28.262Z,0
2016-09-06T04:14:28.279Z,0
2016-09-06T04:15:28.270Z,0
2016-09-06T04:16:28.278Z,0
2016-09-06T04:17:28.261Z,0
2016-09-06T04:18:28.320Z,0
2016-09-06T04:19:28.313Z,0
2016-09-06T04:20:28.277Z,0
2016-09-06T04:21:28.264Z,0
2016-09-06T04:22:28.283Z,0
2016-09-06T04:23:28.302Z,0
2016-09-06T04:24:28.293Z,0
2016-09-06T04:25:28.311Z,0
2016-09-06T04:26:28.320Z,0
2016-09-06T04:27:28.456Z,0
2016-09-06T04:28:28.340Z,0
2016-09-06T04:29:28.308Z,0
2016-09-06T04:30:28.263Z,0
2016-09-06T04:31:28.307Z,0
2016-09-06T04:32:28.317Z,0
2016-09-06T04:33:28.304Z,0
2016-09-06T04:34:28.278Z,0
2016-09-06T04:35:28.285Z,0
2016-09-06T04:36:28.324Z,0
2016-09-06T04:37:28.299Z,0
2016-09-06T04:38:28.307Z,0
2016-09-06T04:39:28.310Z,0
2016-09-06T04:40:28.302Z,0
2016-09-06T04:41:28.282Z,0
2016-09-06T04:42:28.488Z,0
2016-09-06T04:43:28.559Z,0
2016-09-06T04:44:28.510Z,0
2016-09-06T04:45:28.329Z,5
2016-09-06T04:46:28.314Z,5
2016-09-06T04:47:28.279Z,5
2016-09-06T04:48:28.295Z,5
2016-09-06T04:49:28.325Z,5
2016-09-06T04:50:28.283Z,5
2016-09-06T04:51:28.265Z,5
2016-09-06T04:52:28.339Z,5
2016-09-06T04:53:28.265Z,10
2016-09-06T04:54:28.315Z,10
2016-09-06T04:55:28.323Z,10
2016-09-06T04:56:28.295Z,10
2016-09-06T04:57:28.307Z,10
2016-09-06T04:58:28.301Z,10
2016-09-06T04:59:28.309Z,15
2016-09-06T05:00:28.361Z,15
2016-09-06T05:01:28.370Z,15
2016-09-06T05:02:28.294Z,15
2016-09-06T05:03:28.336Z,15
2016-09-06T05:04:28.286Z,20
2016-09-06T05:05:28.301Z,20
2016-09-06T05:06:28.308Z,20
2016-09-06T05:07:28.335Z,20
2016-09-06T05:08:28.312Z,20
2016-09-06T05:09:28.398Z,25
2016-09-06T05:10:28.325Z,25
2016-09-06T05:11:28.318Z,25
2016-09-06T05:12:28.286Z,30
2016-09-06T05:13:28.337Z,30
2016-09-06T05:14:28.297Z,35
2016-09-06T05:15:28.361Z,35
2016-09-06T05:16:28.312Z,35
2016-09-06T05:17:28.308Z,40
2016-09-06T05:18:28.327Z,40
2016-09-06T05:19:28.316Z,40
2016-09-06T05:20:28.293Z,40
2016-09-06T05:21:28.302Z,45
2016-09-06T05:22:28.322Z,45
2016-09-06T05:23:28.298Z,45
2016-09-06T05:24:28.373Z,45
2016-09-06T05:25:28.338Z,45
2016-09-06T05:26:28.326Z,50
2016-09-06T05:27:28.329Z,50
2016-09-06T05:28:28.401Z,50
2016-09-06T05:29:28.360Z,55
2016-09-06T05:30:28.448Z,55
2016-09-06T05:31:28.312Z,55
2016-09-06T05:32:28.357Z,55
2016-09-06T05:33:28.343Z,60
2016-09-06T05:34:28.358Z,60
2016-09-06T05:35:28.330Z,60
2016-09-06T05:36:28.351Z,60
2016-09-06T05:37:28.355Z,65
2016-09-06T05:38:28.391Z,65
2016-09-06T05:39:28.358Z,65
2016-09-06T05:40:28.330Z,70
2016-09-06T05:41:28.358Z,70
2016-09-06T05:42:28.428Z,70
2016-09-06T05:43:28.357Z,70
2016-09-06T05:44:28.344Z,70
2016-09-06T05:45:28.371Z,75
2016-09-06T05:46:28.391Z,75
2016-09-06T05:47:28.360Z,75
2016-09-06T05:48:28.399Z,75
2016-09-06T05:49:28.343Z,80
2016-09-06T05:50:28.372Z,80
2016-09-06T05:51:28.360Z,80
2016-09-06T05:52:28.421Z,80
2016-09-06T05:53:28.415Z,85
2016-09-06T05:54:28.363Z,85
2016-09-06T05:55:28.380Z,85
2016-09-06T05:56:28.391Z,85
2016-09-06T05:57:28.436Z,90
2016-09-06T05:58:28.390Z,90
2016-09-06T05:59:28.479Z,90
2016-09-06T06:00:28.373Z,90
2016-09-06T06:01:28.442Z,90
2016-09-06T06:02:28.424Z,95
2016-09-06T06:03:28.407Z,95
2016-09-06T06:04:28.469Z,95
2016-09-06T06:05:28.405Z,95
2016-09-06T06:06:28.401Z,100
2016-09-06T06:07:28.375Z,100
2016-09-06T06:08:28.366Z,100
2016-09-06T06:09:28.363Z,100
2016-09-06T06:10:28.364Z,100
2016-09-06T06:11:28.463Z,100
2016-09-06T06:12:28.431Z,105
2016-09-06T06:13:28.368Z,105
2016-09-06T06:14:28.348Z,105
2016-09-06T06:15:28.431Z,105
2016-09-06T06:16:28.428Z,105
2016-09-06T06:17:28.420Z,110
2016-09-06T06:18:28.379Z,110
2016-09-06T06:19:28.373Z,110
2016-09-06T06:20:28.360Z,110
2016-09-06T06:21:28.384Z,110
2016-09-06T06:22:28.375Z,110
2016-09-06T06:23:28.379Z,115
2016-09-06T06:24:28.385Z,115
2016-09-06T06:25:28.362Z,115
2016-09-06T06:26:28.390Z,115
2016-09-06T06:27:28.355Z,115
2016-09-06T06:28:28.421Z,120
2016-09-06T06:29:28.377Z,120
2016-09-06T06:30:28.360Z,120
2016-09-06T06:31:28.379Z,115
2016-09-06T06:32:28.422Z,120
2016-09-06T06:33:28.362Z,120
2016-09-06T06:34:28.375Z,120
2016-09-06T06:35:28.381Z,120
2016-09-06T06:36:28.451Z,120
2016-09-06T06:37:29.063Z,125
2016-09-06T06:38:28.397Z,125
2016-09-06T06:39:28.373Z,125
2016-09-06T06:40:28.380Z,125
2016-09-06T06:41:28.361Z,125
2016-09-06T06:42:28.527Z,130
2016-09-06T06:43:28.396Z,130
2016-09-06T06:44:28.399Z,130
2016-09-06T06:45:29.344Z,130
2016-09-06T06:46:29.469Z,130
2016-09-06T06:47:29.183Z,135
2016-09-06T06:48:28.461Z,135
2016-09-06T06:49:29.196Z,135
2016-09-06T06:50:28.426Z,145
2016-09-06T06:51:28.465Z,140
2016-09-06T06:52:29.465Z,140
2016-09-06T06:53:29.547Z,140
2016-09-06T06:54:28.753Z,140
2016-09-06T06:55:29.342Z,140
2016-09-06T06:56:29.537Z,140
2016-09-06T06:57:30.699Z,140
2016-09-06T06:58:28.573Z,140
2016-09-06T06:59:28.486Z,140
2016-09-06T07:00:28.976Z,140
2016-09-06T07:01:29.901Z,140
2016-09-06T07:02:28.411Z,140
2016-09-06T07:03:28.400Z,140
2016-09-06T07:04:28.406Z,145
2016-09-06T07:05:28.474Z,140
2016-09-06T07:06:28.438Z,145
2016-09-06T07:07:28.417Z,145
2016-09-06T07:08:28.411Z,145
2016-09-06T07:09:28.425Z,145
2016-09-06T07:10:28.424Z,145
2016-09-06T07:11:28.430Z,145
2016-09-06T07:12:28.798Z,145
2016-09-06T07:13:28.423Z,150
2016-09-06T07:14:28.434Z,150
2016-09-06T07:15:28.423Z,150
2016-09-06T07:16:28.429Z,150
2016-09-06T07:17:28.439Z,150
2016-09-06T07:18:28.442Z,155
2016-09-06T07:19:28.455Z,155
2016-09-06T07:20:29.189Z,155
2016-09-06T07:21:28.429Z,155
2016-09-06T07:22:28.935Z,155
2016-09-06T07:27:45.620Z,160
2016-09-06T07:27:55.873Z,160
2016-09-06T07:28:57.253Z,160
2016-09-06T07:29:55.635Z,160
2016-09-06T07:30:56.564Z,160
2016-09-06T07:31:55.502Z,160
2016-09-06T07:32:55.524Z,160
2016-09-06T07:33:55.549Z,160
2016-09-06T07:34:55.892Z,160
2016-09-06T07:35:55.710Z,155
2016-09-06T07:36:55.531Z,155
2016-09-06T07:37:55.513Z,155
2016-09-06T07:38:55.534Z,155
2016-09-06T07:39:55.637Z,155
2016-09-06T07:40:55.654Z,155
2016-09-06T07:41:55.937Z,160
2016-09-06T07:42:55.731Z,160
2016-09-06T07:43:55.542Z,160
2016-09-06T07:44:55.563Z,160
2016-09-06T07:45:56.330Z,160
2016-09-06T07:46:55.937Z,160
2016-09-06T07:47:56.131Z,160
2016-09-06T07:48:55.540Z,160
2016-09-06T07:49:55.561Z,160
2016-09-06T07:50:57.173Z,160
2016-09-06T07:51:55.560Z,160
2016-09-06T07:52:55.591Z,160
2016-09-06T07:53:55.572Z,160
2016-09-06T07:54:55.529Z,160
2016-09-06T07:55:55.531Z,160
2016-09-06T07:56:55.546Z,160
2016-09-06T07:57:55.507Z,160
2016-09-06T07:58:55.578Z,160
2016-09-06T07:59:55.525Z,160
2016-09-06T08:00:55.569Z,160
2016-09-06T08:01:55.591Z,160
2016-09-06T08:02:55.605Z,160
2016-09-06T08:03:55.559Z,160
2016-09-06T08:04:55.537Z,160
2016-09-06T08:05:56.331Z,160
2016-09-06T08:06:56.599Z,160
2016-09-06T08:07:56.811Z,160
2016-09-06T08:08:56.033Z,160
2016-09-06T08:09:55.565Z,160
2016-09-06T08:10:57.167Z,155
2016-09-06T08:11:57.271Z,155
2016-09-06T08:12:55.561Z,160
2016-09-06T08:13:57.001Z,160
2016-09-06T08:14:55.592Z,160
2016-09-06T08:15:56.447Z,160
2016-09-06T08:16:56.903Z,160
2016-09-06T08:17:56.135Z,155
2016-09-06T08:18:56.163Z,155
2016-09-06T08:19:56.671Z,155
2016-09-06T08:20:55.653Z,155
2016-09-06T08:21:55.984Z,160
2016-09-06T08:22:55.561Z,160
2016-09-06T08:23:55.835Z,160
2016-09-06T08:24:55.583Z,155
2016-09-06T08:25:56.291Z,155
2016-09-06T08:26:55.658Z,155
2016-09-06T08:27:55.563Z,155
2016-09-06T08:28:55.658Z,165
2016-09-06T08:29:57.108Z,155
2016-09-06T08:30:55.585Z,155
2016-09-06T08:31:55.580Z,155
2016-09-06T08:32:58.698Z,155
2016-09-06T08:33:55.581Z,155
2016-09-06T08:34:55.606Z,155
2016-09-06T08:35:56.221Z,155
2016-09-06T08:36:55.591Z,155
2016-09-06T08:37:56.130Z,160
2016-09-06T08:38:55.581Z,155
2016-09-06T08:39:55.612Z,160
2016-09-06T08:40:55.586Z,155
2016-09-06T08:41:55.952Z,155
2016-09-06T08:42:56.270Z,155
2016-09-06T08:43:55.633Z,155
2016-09-06T08:44:55.598Z,155
2016-09-06T08:45:56.410Z,155
2016-09-06T08:46:55.880Z,155
2016-09-06T08:47:55.605Z,155
2016-09-06T08:48:55.672Z,155
2016-09-06T08:49:55.607Z,155
2016-09-06T08:50:55.640Z,160
2016-09-06T08:51:55.600Z,160
2016-09-06T08:52:55.638Z,160
2016-09-06T08:53:55.598Z,165
2016-09-06T08:54:55.694Z,165
2016-09-06T08:55:55.578Z,165
2016-09-06T08:56:55.625Z,165
2016-09-06T08:57:56.022Z,165
2016-09-06T08:58:55.610Z,165
2016-09-06T08:59:55.706Z,165
2016-09-06T09:00:55.627Z,165
2016-09-06T09:01:56.808Z,170
2016-09-06T09:02:55.825Z,170
2016-09-06T09:03:55.622Z,170
2016-09-06T09:04:55.746Z,170
2016-09-06T09:05:55.667Z,165
2016-09-06T09:06:55.643Z,170
2016-09-06T09:07:55.620Z,170
2016-09-06T09:08:55.978Z,170
2016-09-06T09:09:55.647Z,170
2016-09-06T09:10:55.641Z,175
2016-09-06T09:11:55.616Z,175
2016-09-06T09:12:55.627Z,170
2016-09-06T09:13:55.679Z,170
2016-09-06T09:14:55.604Z,175
2016-09-06T09:15:55.700Z,175
2016-09-06T09:16:55.611Z,175
2016-09-06T09:18:26.407Z,180
2016-09-06T09:19:08.679Z,180
2016-09-06T09:20:20.000Z,180
2016-09-06T09:20:55.911Z,180
2016-09-06T09:21:55.625Z,180
2016-09-06T09:23:02.120Z,180
2016-09-06T09:24:31.318Z,175
2016-09-06T09:25:41.451Z,175
2016-09-06T09:26:20.962Z,175
2016-09-06T09:27:36.793Z,175
2016-09-06T09:28:40.253Z,175
2016-09-06T09:29:22.909Z,175
2016-09-06T09:31:11.233Z,175
2016-09-06T09:32:06.289Z,175
2016-09-06T09:33:47.357Z,175
2016-09-06T09:33:57.251Z,175
2016-09-06T09:34:57.247Z,175
2016-09-06T09:35:58.353Z,180
2016-09-06T09:36:57.245Z,180
2016-09-06T09:37:57.306Z,180
2016-09-06T09:38:58.896Z,175
2016-09-06T09:39:58.274Z,175
2016-09-06T09:41:57.424Z,175
2016-09-06T09:42:57.332Z,170
2016-09-06T09:43:58.255Z,175
2016-09-06T09:44:57.322Z,175
2016-09-06T09:45:57.263Z,175
2016-09-06T09:46:58.083Z,175
2016-09-06T09:47:57.323Z,175
2016-09-06T09:48:57.983Z,175
2016-09-06T09:49:58.548Z,175
2016-09-06T09:50:57.288Z,175
2016-09-06T09:51:58.063Z,175
2016-09-06T09:52:57.892Z,175
2016-09-06T09:53:57.279Z,180
2016-09-06T09:54:57.235Z,180
2016-09-06T09:55:57.294Z,175
2016-09-06T09:56:57.279Z,170
2016-09-06T09:57:57.271Z,175
2016-09-06T09:58:57.283Z,165
2016-09-06T09:59:57.313Z,160
2016-09-06T10:00:57.278Z,165
2016-09-06T10:01:58.023Z,165
2016-09-06T10:02:57.397Z,170
2016-09-06T10:03:58.287Z,170
2016-09-06T10:04:57.358Z,170
2016-09-06T10:05:58.042Z,185
2016-09-06T10:06:57.412Z,175
2016-09-06T10:07:57.445Z,170
2016-09-06T10:08:59.309Z,165
2016-09-06T10:09:57.307Z,170
2016-09-06T10:10:57.272Z,160
2016-09-06T10:11:57.268Z,160
2016-09-06T10:12:57.481Z,180
2016-09-06T10:13:57.314Z,210
2016-09-06T10:14:57.330Z,200
2016-09-06T10:15:57.341Z,200
2016-09-06T10:16:57.336Z,205
2016-09-06T10:17:57.294Z,200
2016-09-06T10:18:57.310Z,185
2016-09-06T10:19:57.345Z,185
2016-09-06T10:20:57.293Z,175
2016-09-06T10:21:57.686Z,175
2016-09-06T10:22:57.906Z,175
2016-09-06T10:23:58.464Z,180
2016-09-06T10:24:58.298Z,170
2016-09-06T10:25:57.921Z,180
2016-09-06T10:26:59.132Z,195
2016-09-06T10:27:57.855Z,190
2016-09-06T10:28:57.530Z,185
2016-09-06T10:29:58.124Z,180
2016-09-06T10:30:57.585Z,170
2016-09-06T10:31:58.140Z,160
2016-09-06T10:32:58.660Z,160
2016-09-06T10:33:58.675Z,160
2016-09-06T10:34:59.434Z,155
2016-09-06T10:35:58.029Z,155
2016-09-06T10:36:57.702Z,155
2016-09-06T10:38:00.612Z,155
2016-09-06T10:38:59.025Z,155
2016-09-06T10:39:58.007Z,155
2016-09-06T10:40:59.359Z,150
2016-09-06T10:41:58.764Z,150
2016-09-06T10:42:57.566Z,155
2016-09-06T10:43:57.523Z,150
2016-09-06T10:44:57.642Z,150
2016-09-06T10:45:57.488Z,150
2016-09-06T10:46:57.499Z,155
2016-09-06T10:47:57.600Z,155
2016-09-06T10:48:57.551Z,155
2016-09-06T10:49:57.667Z,160
2016-09-06T10:50:57.458Z,160
2016-09-06T10:51:57.580Z,160
2016-09-06T10:52:57.760Z,155
2016-09-06T10:53:57.598Z,155
2016-09-06T10:54:57.542Z,150
2016-09-06T10:55:57.662Z,155
2016-09-06T10:56:57.880Z,160
2016-09-06T10:57:58.329Z,160
2016-09-06T10:58:57.596Z,160
2016-09-06T10:59:57.540Z,160
2016-09-06T11:00:57.656Z,160
2016-09-06T11:01:57.580Z,160
2016-09-06T11:02:57.791Z,160
2016-09-06T11:03:57.749Z,160
2016-09-06T11:04:57.781Z,160
2016-09-06T11:05:57.872Z,160
2016-09-06T11:06:57.934Z,160
2016-09-06T11:07:57.891Z,155
2016-09-06T11:08:59.019Z,155
2016-09-06T11:09:57.859Z,155
2016-09-06T11:10:57.693Z,145
2016-09-06T11:11:57.505Z,160
2016-09-06T11:12:57.591Z,170
2016-09-06T11:13:57.642Z,170
2016-09-06T11:14:57.430Z,180
2016-09-06T11:15:57.464Z,190
2016-09-06T11:16:57.444Z,185
2016-09-06T11:17:57.487Z,195
2016-09-06T11:18:57.466Z,200
2016-09-06T11:19:57.434Z,205
2016-09-06T11:20:57.487Z,205
2016-09-06T11:21:57.494Z,195
2016-09-06T11:22:57.537Z,190
2016-09-06T11:23:57.467Z,185
2016-09-06T11:24:57.494Z,175
2016-09-06T11:25:57.506Z,170
2016-09-06T11:26:57.462Z,170
2016-09-06T11:27:57.483Z,175
2016-09-06T11:28:57.429Z,170
2016-09-06T11:29:57.461Z,170
2016-09-06T11:30:57.481Z,170
2016-09-06T11:31:57.422Z,170
2016-09-06T11:32:57.415Z,165
2016-09-06T11:33:57.493Z,160
2016-09-06T11:34:57.481Z,160
2016-09-06T11:35:57.387Z,165
2016-09-06T11:36:57.453Z,170
2016-09-06T11:37:57.543Z,175
2016-09-06T11:38:57.486Z,180
2016-09-06T11:39:57.558Z,200
2016-09-06T11:40:57.954Z,210
2016-09-06T11:41:57.610Z,210
2016-09-06T11:42:57.491Z,195
2016-09-06T11:43:57.554Z,190
2016-09-06T11:44:57.523Z,185
2016-09-06T11:45:57.571Z,190
2016-09-06T11:46:57.465Z,200
2016-09-06T11:47:57.485Z,205
2016-09-06T11:48:57.558Z,215
2016-09-06T11:49:57.661Z,210
2016-09-06T11:50:58.901Z,210
2016-09-06T11:51:57.973Z,215
2016-09-06T11:52:57.723Z,220
2016-09-06T11:53:57.796Z,215
2016-09-06T11:54:57.795Z,200
2016-09-06T11:55:57.740Z,195
2016-09-06T11:56:57.874Z,195
2016-09-06T11:57:57.825Z,190
2016-09-06T11:58:57.451Z,185
2016-09-06T11:59:58.001Z,185
2016-09-06T12:00:57.921Z,180
2016-09-06T12:01:57.812Z,180
2016-09-06T12:02:57.974Z,175
2016-09-06T12:03:58.664Z,180
2016-09-06T12:04:57.803Z,170
2016-09-06T12:05:57.866Z,170
2016-09-06T12:06:58.020Z,170
2016-09-06T12:07:57.737Z,170
2016-09-06T12:08:58.019Z,175
2016-09-06T12:09:57.902Z,175
2016-09-06T12:10:57.907Z,185
2016-09-06T12:11:57.960Z,190
2016-09-06T12:12:58.200Z,195
2016-09-06T12:13:58.103Z,195
2016-09-06T12:14:57.954Z,200
2016-09-06T12:15:57.860Z,195
2016-09-06T12:16:58.036Z,185
2016-09-06T12:17:57.917Z,180
2016-09-06T12:18:57.916Z,170
2016-09-06T12:19:57.780Z,175
2016-09-06T12:20:58.742Z,175
2016-09-06T12:21:58.090Z,170
2016-09-06T12:22:57.816Z,170
2016-09-06T12:23:57.960Z,165
2016-09-06T12:24:58.058Z,160
2016-09-06T12:25:57.933Z,160
2016-09-06T12:26:57.817Z,155
2016-09-06T12:27:57.762Z,160
2016-09-06T12:28:57.992Z,175
2016-09-06T12:29:57.678Z,175
2016-09-06T12:30:57.794Z,190
2016-09-06T12:31:57.826Z,200
2016-09-06T12:32:57.471Z,200
2016-09-06T12:33:57.641Z,205
2016-09-06T12:34:57.880Z,205
2016-09-06T12:35:57.943Z,210
2016-09-06T12:36:57.719Z,225
2016-09-06T12:37:58.027Z,225
2016-09-06T12:38:57.983Z,215
2016-09-06T12:39:57.944Z,205
2016-09-06T12:40:57.829Z,200
2016-09-06T12:41:57.816Z,195
2016-09-06T12:42:57.847Z,195
2016-09-06T12:43:57.845Z,215
2016-09-06T12:44:57.818Z,220
2016-09-06T12:45:57.532Z,215
2016-09-06T12:46:57.557Z,215
2016-09-06T12:47:57.554Z,215
2016-09-06T12:48:57.538Z,215
2016-09-06T12:49:57.568Z,215
2016-09-06T12:50:57.541Z,210
2016-09-06T12:51:57.473Z,215
2016-09-06T12:52:57.455Z,210
2016-09-06T12:53:57.477Z,205
2016-09-06T12:54:57.456Z,200
2016-09-06T12:55:57.520Z,190
2016-09-06T12:56:57.452Z,185
2016-09-06T12:57:57.463Z,175
2016-09-06T12:58:57.588Z,170
2016-09-06T12:59:57.528Z,170
2016-09-06T13:00:57.513Z,165
2016-09-06T13:01:57.598Z,165
2016-09-06T13:02:57.567Z,160
2016-09-06T13:03:57.509Z,160
2016-09-06T13:04:57.513Z,160
2016-09-06T13:05:57.573Z,155
2016-09-06T13:06:57.514Z,155
2016-09-06T13:07:57.532Z,155
2016-09-06T13:08:57.508Z,155
2016-09-06T13:09:57.535Z,155
2016-09-06T13:10:57.534Z,155
2016-09-06T13:11:57.571Z,150
2016-09-06T13:12:57.564Z,150
2016-09-06T13:13:57.515Z,145
2016-09-06T13:14:57.554Z,145
2016-09-06T13:15:57.650Z,145
2016-09-06T13:16:57.830Z,140
2016-09-06T13:17:57.546Z,140
2016-09-06T13:18:57.564Z,140
2016-09-06T13:19:57.587Z,140
2016-09-06T13:20:57.559Z,140
2016-09-06T13:21:57.587Z,140
2016-09-06T13:22:57.466Z,140
2016-09-06T13:23:57.527Z,140
2016-09-06T13:24:57.528Z,140
2016-09-06T13:25:58.120Z,140
2016-09-06T13:26:57.734Z,140
2016-09-06T13:27:57.693Z,140
2016-09-06T13:28:57.718Z,140
2016-09-06T13:29:57.575Z,140
2016-09-06T13:30:57.489Z,140
2016-09-06T13:31:57.607Z,140
2016-09-06T13:32:57.559Z,140
2016-09-06T13:33:57.524Z,140
2016-09-06T13:34:57.552Z,140
2016-09-06T13:35:57.550Z,140
2016-09-06T13:36:57.510Z,140
2016-09-06T13:37:57.524Z,135
2016-09-06T13:38:57.746Z,135
2016-09-06T13:39:58.421Z,135
2016-09-06T13:40:58.869Z,135
2016-09-06T13:41:58.236Z,135
2016-09-06T13:42:59.013Z,135
2016-09-06T13:43:58.439Z,135
2016-09-06T13:44:57.921Z,135
2016-09-06T13:45:57.906Z,135
2016-09-06T13:46:57.911Z,135
2016-09-06T13:47:58.081Z,135
2016-09-06T13:48:58.225Z,135
2016-09-06T13:49:58.025Z,135
2016-09-06T13:50:58.392Z,135
2016-09-06T13:51:58.346Z,135
2016-09-06T13:52:58.350Z,135
2016-09-06T13:53:58.028Z,135
2016-09-06T13:54:58.378Z,135
2016-09-06T13:55:58.223Z,135
2016-09-06T13:56:58.104Z,135
2016-09-06T13:57:58.251Z,135
2016-09-06T13:58:57.551Z,135
2016-09-06T13:59:57.554Z,135
2016-09-06T14:00:58.997Z,135
2016-09-06T14:01:57.690Z,135
2016-09-06T14:02:57.649Z,130
2016-09-06T14:03:57.607Z,130
2016-09-06T14:04:57.572Z,130
2016-09-06T14:05:57.655Z,130
2016-09-06T14:06:57.565Z,130
2016-09-06T14:07:57.651Z,130
2016-09-06T14:08:57.606Z,130
2016-09-06T14:09:57.626Z,130
2016-09-06T14:10:57.669Z,130
2016-09-06T14:11:57.612Z,130
2016-09-06T14:12:57.597Z,130
2016-09-06T14:13:57.607Z,130